Terminal Aerodrome Forecast
Issued by NWS Houston/Galveston, TX

Home | Current Version | Previous Version | Text Only | Print | Product List | Glossary On
Versions: 1 2 3 4 5 6 7 8 9 10 11 12 13 14 15 16 17 18
000
FTUS44 KHGX 202321
TAFGLS
TAF
KGLS 202321Z 2100/2124 10008KT P6SM BKN090
     FM210100 14005KT P6SM SCT025 BKN050 BKN100
     FM211500 14008KT P6SM BKN050=

USA.gov is the U.S. government's official web portal to all federal, state and local government web resources and services.